createdAt,value
2018-09-20T00:00:46.795Z,17.00
2018-09-20T00:03:15.464Z,17.00
2018-09-20T00:05:44.075Z,17.00
2018-09-20T00:08:12.698Z,17.00
2018-09-20T00:10:41.296Z,17.00
2018-09-20T00:13:09.987Z,17.00
2018-09-20T00:15:38.669Z,16.90
2018-09-20T00:18:07.428Z,16.80
2018-09-20T00:20:36.068Z,16.70
2018-09-20T00:23:04.696Z,16.70
2018-09-20T00:25:33.400Z,16.60
2018-09-20T00:28:02.075Z,16.50
2018-09-20T00:30:30.700Z,16.50
2018-09-20T00:32:59.310Z,16.40
2018-09-20T00:35:27.987Z,16.30
2018-09-20T00:37:56.652Z,16.30
2018-09-20T00:40:25.292Z,16.20
2018-09-20T00:42:53.962Z,16.20
2018-09-20T00:45:22.599Z,16.10
2018-09-20T00:47:51.236Z,16.10
2018-09-20T00:50:19.986Z,16.20
2018-09-20T00:52:48.991Z,16.20
2018-09-20T00:55:17.619Z,16.20
2018-09-20T00:57:46.227Z,16.20
2018-09-20T01:00:14.889Z,16.10
2018-09-20T01:02:43.735Z,16.00
2018-09-20T01:05:12.400Z,16.10
2018-09-20T01:07:41.050Z,16.00
2018-09-20T01:10:09.717Z,16.00
2018-09-20T01:12:38.339Z,15.90
2018-09-20T01:15:07.815Z,15.90
2018-09-20T01:17:36.534Z,15.80
2018-09-20T01:20:05.279Z,15.80
2018-09-20T01:22:33.980Z,15.70
2018-09-20T01:25:02.616Z,15.70
2018-09-20T01:27:31.252Z,15.70
2018-09-20T01:29:59.852Z,15.60
2018-09-20T01:32:28.498Z,15.60
2018-09-20T01:34:57.183Z,15.60
2018-09-20T01:37:25.784Z,15.60
2018-09-20T01:39:54.411Z,15.50
2018-09-20T01:42:23.062Z,15.50
2018-09-20T01:44:51.728Z,15.50
2018-09-20T01:47:20.349Z,15.60
2018-09-20T01:49:48.970Z,15.60
2018-09-20T01:52:17.627Z,15.60
2018-09-20T01:54:46.245Z,15.60
2018-09-20T01:57:14.918Z,15.60
2018-09-20T01:59:43.564Z,15.70
2018-09-20T02:02:12.618Z,15.80
2018-09-20T02:04:41.227Z,15.80
2018-09-20T02:07:09.875Z,15.80
2018-09-20T02:09:38.547Z,15.90
2018-09-20T02:12:07.119Z,15.90
2018-09-20T02:14:35.802Z,15.90
2018-09-20T02:17:04.420Z,15.90
2018-09-20T02:19:32.997Z,15.90
2018-09-20T02:22:01.639Z,15.90
2018-09-20T02:24:30.288Z,15.80
2018-09-20T02:26:58.960Z,15.80
2018-09-20T02:29:27.535Z,15.70
2018-09-20T02:31:56.240Z,15.70
2018-09-20T02:34:24.860Z,15.70
2018-09-20T02:36:53.495Z,15.60
2018-09-20T02:39:22.164Z,15.60
2018-09-20T02:41:50.732Z,15.70
2018-09-20T02:44:19.672Z,15.70
2018-09-20T02:46:48.263Z,15.80
2018-09-20T02:49:16.987Z,15.80
2018-09-20T02:51:45.643Z,15.90
2018-09-20T02:54:14.287Z,15.80
2018-09-20T02:56:42.944Z,15.80
2018-09-20T02:59:11.575Z,15.80
2018-09-20T03:01:40.213Z,15.70
2018-09-20T03:04:08.930Z,15.60
2018-09-20T03:06:37.541Z,15.60
2018-09-20T03:09:07.931Z,15.50
2018-09-20T03:11:36.575Z,15.40
2018-09-20T03:14:05.192Z,15.40
2018-09-20T03:16:33.898Z,15.30
2018-09-20T03:19:02.647Z,15.30
2018-09-20T03:21:31.295Z,15.30
2018-09-20T03:24:00.185Z,15.20
2018-09-20T03:26:28.887Z,15.20
2018-09-20T03:28:57.589Z,15.20
2018-09-20T03:31:26.197Z,15.10
2018-09-20T03:33:54.787Z,15.10
2018-09-20T03:36:23.462Z,15.00
2018-09-20T03:38:52.423Z,15.00
2018-09-20T03:41:21.083Z,15.00
2018-09-20T03:43:49.719Z,15.00
2018-09-20T03:46:18.359Z,15.00
2018-09-20T03:48:46.943Z,15.00
2018-09-20T03:51:15.571Z,15.00
2018-09-20T03:53:44.186Z,14.90
2018-09-20T03:56:12.903Z,14.90
2018-09-20T03:58:41.515Z,14.80
2018-09-20T04:01:10.124Z,14.80
2018-09-20T04:03:38.758Z,14.70
2018-09-20T04:06:07.618Z,14.70
2018-09-20T04:08:36.567Z,14.70
2018-09-20T04:11:05.264Z,14.60
2018-09-20T04:13:33.931Z,14.50
2018-09-20T04:16:02.632Z,14.50
2018-09-20T04:18:31.287Z,14.40
2018-09-20T04:20:59.921Z,14.40
2018-09-20T04:23:28.583Z,14.40
2018-09-20T04:25:57.244Z,14.50
2018-09-20T04:28:25.862Z,14.40
2018-09-20T04:30:54.479Z,14.50
2018-09-20T04:33:23.147Z,14.40
2018-09-20T04:35:51.817Z,14.50
2018-09-20T04:38:20.429Z,14.50
2018-09-20T04:40:49.067Z,14.50
2018-09-20T04:43:17.718Z,14.50
2018-09-20T04:45:46.340Z,14.40
2018-09-20T04:48:14.952Z,14.40
2018-09-20T04:50:43.608Z,14.40
2018-09-20T04:53:12.242Z,14.40
2018-09-20T04:55:40.804Z,14.30
2018-09-20T04:58:09.424Z,14.30
2018-09-20T05:00:38.053Z,14.30
2018-09-20T05:03:06.860Z,14.20
2018-09-20T05:05:35.539Z,14.20
2018-09-20T05:08:04.144Z,14.20
2018-09-20T05:10:32.783Z,14.30
2018-09-20T05:13:01.454Z,14.20
2018-09-20T05:15:30.081Z,14.20
2018-09-20T05:17:58.803Z,14.20
2018-09-20T05:20:27.524Z,14.30
2018-09-20T05:22:56.099Z,14.30
2018-09-20T05:25:25.220Z,14.40
2018-09-20T05:27:54.168Z,14.40
2018-09-20T05:30:23.136Z,14.50
2018-09-20T05:32:52.192Z,14.60
2018-09-20T05:35:21.937Z,14.70
2018-09-20T05:37:50.742Z,14.70
2018-09-20T05:40:19.583Z,14.80
2018-09-20T05:42:49.408Z,14.80
2018-09-20T05:45:18.062Z,14.90
2018-09-20T05:47:47.133Z,14.90
2018-09-20T05:50:15.967Z,15.00
2018-09-20T05:52:44.611Z,15.10
2018-09-20T05:55:13.539Z,15.10
2018-09-20T05:57:42.160Z,15.20
2018-09-20T06:00:10.826Z,15.30
2018-09-20T06:02:39.479Z,15.40
2018-09-20T06:05:08.239Z,15.60
2018-09-20T06:07:36.900Z,15.70
2018-09-20T06:10:05.746Z,15.80
2018-09-20T06:12:34.355Z,15.80
2018-09-20T06:15:03.014Z,15.90
2018-09-20T06:17:31.690Z,16.00
2018-09-20T06:20:00.446Z,16.00
2018-09-20T06:22:29.031Z,16.10
2018-09-20T06:24:58.084Z,16.10
2018-09-20T06:27:26.783Z,16.10
2018-09-20T06:29:55.417Z,16.20
2018-09-20T06:32:24.075Z,16.20
2018-09-20T06:34:52.721Z,16.20
2018-09-20T06:37:21.374Z,16.30
2018-09-20T06:39:50.022Z,16.30
2018-09-20T06:42:18.787Z,16.40
2018-09-20T06:44:47.413Z,16.50
2018-09-20T06:47:16.075Z,16.50
2018-09-20T06:49:44.696Z,16.60
2018-09-20T06:52:13.335Z,16.70
2018-09-20T06:54:42.008Z,16.80
2018-09-20T06:57:10.647Z,17.00
2018-09-20T06:59:39.321Z,17.10
2018-09-20T07:02:08.023Z,17.20
2018-09-20T07:04:36.662Z,17.30
2018-09-20T07:07:05.270Z,17.40
2018-09-20T07:09:33.947Z,17.40
2018-09-20T07:12:02.534Z,17.50
2018-09-20T07:14:31.131Z,17.60
2018-09-20T07:16:59.806Z,17.60
2018-09-20T07:19:28.368Z,17.70
2018-09-20T07:21:57.007Z,17.80
2018-09-20T07:24:25.635Z,17.90
2018-09-20T07:26:54.283Z,18.10
2018-09-20T07:29:22.894Z,18.20
2018-09-20T07:31:51.499Z,18.20
2018-09-20T07:34:20.064Z,18.30
2018-09-20T07:36:48.622Z,18.30
2018-09-20T07:39:17.614Z,18.40
2018-09-20T07:41:46.203Z,18.50
2018-09-20T07:44:14.791Z,18.60
2018-09-20T07:46:43.394Z,18.70
2018-09-20T07:49:12.015Z,18.70
2018-09-20T07:51:40.639Z,18.90
2018-09-20T07:54:09.294Z,18.90
2018-09-20T07:56:37.980Z,19.00
2018-09-20T07:59:06.614Z,19.00
2018-09-20T08:01:35.222Z,19.00
2018-09-20T08:04:03.891Z,19.10
2018-09-20T08:06:32.466Z,19.30
2018-09-20T08:09:01.064Z,19.40
2018-09-20T08:11:29.726Z,19.50
2018-09-20T08:13:58.407Z,19.60
2018-09-20T08:16:27.011Z,19.60
2018-09-20T08:18:55.590Z,19.60
2018-09-20T08:21:24.227Z,19.50
2018-09-20T08:23:52.906Z,19.60
2018-09-20T08:26:21.573Z,19.70
2018-09-20T08:28:50.242Z,19.70
2018-09-20T08:31:18.834Z,19.70
2018-09-20T08:33:47.780Z,19.80
2018-09-20T08:36:16.377Z,20.00
2018-09-20T08:38:45.010Z,20.10
2018-09-20T08:41:13.663Z,20.10
2018-09-20T08:43:42.266Z,20.10
2018-09-20T08:46:10.859Z,20.10
2018-09-20T08:48:39.478Z,20.10
2018-09-20T08:51:08.162Z,20.10
2018-09-20T08:53:36.662Z,20.10
2018-09-20T08:56:05.299Z,20.20
2018-09-20T08:58:34.266Z,20.30
2018-09-20T09:01:04.236Z,20.40
2018-09-20T09:03:32.891Z,20.40
2018-09-20T09:06:01.903Z,20.40
2018-09-20T09:08:30.490Z,20.50
2018-09-20T09:10:59.111Z,20.60
2018-09-20T09:13:27.691Z,20.80
2018-09-20T09:15:56.306Z,20.90
2018-09-20T09:18:24.875Z,21.10
2018-09-20T09:20:53.535Z,21.20
2018-09-20T09:23:22.140Z,21.30
2018-09-20T09:25:50.763Z,21.40
2018-09-20T09:28:19.407Z,21.40
2018-09-20T09:30:48.005Z,21.40
2018-09-20T09:33:16.600Z,21.50
2018-09-20T09:35:45.222Z,21.60
2018-09-20T09:38:13.936Z,21.60
2018-09-20T09:40:42.579Z,21.60
2018-09-20T09:43:11.151Z,21.60
2018-09-20T09:45:39.774Z,21.60
2018-09-20T09:48:08.491Z,21.80
2018-09-20T09:50:37.055Z,21.80
2018-09-20T09:53:05.832Z,21.90
2018-09-20T09:55:34.446Z,21.90
2018-09-20T09:58:03.062Z,22.00
2018-09-20T10:00:33.615Z,22.20
2018-09-20T10:03:02.290Z,22.20
2018-09-20T10:05:30.906Z,22.30
2018-09-20T10:07:59.566Z,22.30
2018-09-20T10:10:28.242Z,22.40
2018-09-20T10:12:56.851Z,22.40
2018-09-20T10:15:25.462Z,22.40
2018-09-20T10:17:54.082Z,22.60
2018-09-20T10:20:22.723Z,22.80
2018-09-20T10:22:51.331Z,23.00
2018-09-20T10:25:19.923Z,23.10
2018-09-20T10:27:48.519Z,23.20
2018-09-20T10:30:17.180Z,23.10
2018-09-20T10:32:45.731Z,23.20
2018-09-20T10:35:14.339Z,23.30
2018-09-20T10:37:42.910Z,23.40
2018-09-20T10:40:11.535Z,23.60
2018-09-20T10:42:40.136Z,23.70
2018-09-20T10:45:08.735Z,23.50
2018-09-20T10:47:37.338Z,23.60
2018-09-20T10:50:06.102Z,23.70
2018-09-20T10:52:34.711Z,23.70
2018-09-20T10:55:03.352Z,23.70
2018-09-20T10:57:32.027Z,23.70
2018-09-20T11:00:00.675Z,23.70
2018-09-20T11:02:29.303Z,23.60
2018-09-20T11:04:57.890Z,23.50
2018-09-20T11:07:26.487Z,23.50
2018-09-20T11:10:01.659Z,23.50
2018-09-20T11:12:30.315Z,23.40
2018-09-20T11:14:58.919Z,23.40
2018-09-20T11:17:27.531Z,23.40
2018-09-20T11:19:56.171Z,23.60
2018-09-20T11:22:24.751Z,23.70
2018-09-20T11:24:53.631Z,23.80
2018-09-20T11:27:22.223Z,23.80
2018-09-20T11:29:50.847Z,23.80
2018-09-20T11:32:19.567Z,23.90
2018-09-20T11:34:48.177Z,23.70
2018-09-20T11:37:16.766Z,23.50
2018-09-20T11:39:45.616Z,23.30
2018-09-20T11:42:14.247Z,23.30
2018-09-20T11:44:42.855Z,23.20
2018-09-20T11:47:11.611Z,23.20
2018-09-20T11:49:40.262Z,23.20
2018-09-20T11:52:08.850Z,23.30
2018-09-20T11:54:37.419Z,23.40
2018-09-20T11:57:06.087Z,23.40
2018-09-20T11:59:34.834Z,23.50
2018-09-20T12:02:03.535Z,23.60
2018-09-20T12:04:32.170Z,23.70
2018-09-20T12:07:00.782Z,23.80
2018-09-20T12:09:29.404Z,23.90
2018-09-20T12:11:58.032Z,24.00
2018-09-20T12:14:26.610Z,24.00
2018-09-20T12:16:55.204Z,23.90
2018-09-20T12:19:23.809Z,24.00
2018-09-20T12:21:52.727Z,23.90
2018-09-20T12:24:27.980Z,23.80
2018-09-20T12:26:56.610Z,23.80
2018-09-20T12:29:25.356Z,23.80
2018-09-20T12:31:54.020Z,23.70
2018-09-20T12:34:22.610Z,23.80
2018-09-20T12:36:51.326Z,24.00
2018-09-20T12:39:19.950Z,24.00
2018-09-20T12:41:48.543Z,24.10
2018-09-20T12:44:17.126Z,24.10
2018-09-20T12:46:45.756Z,24.20
2018-09-20T12:49:14.366Z,24.20
2018-09-20T12:51:44.535Z,24.30
2018-09-20T12:54:13.162Z,24.40
2018-09-20T12:56:41.858Z,24.50
2018-09-20T12:59:10.511Z,24.40
2018-09-20T13:01:39.120Z,24.40
2018-09-20T13:04:07.855Z,24.50
2018-09-20T13:06:36.482Z,24.50
2018-09-20T13:09:08.180Z,24.50
2018-09-20T13:11:36.779Z,24.60
2018-09-20T13:14:05.395Z,24.80
2018-09-20T13:16:34.238Z,24.80
2018-09-20T13:19:02.827Z,24.70
2018-09-20T13:21:31.418Z,24.70
2018-09-20T13:24:00.095Z,24.60
2018-09-20T13:26:28.683Z,24.60
2018-09-20T13:28:57.299Z,24.70
2018-09-20T13:31:25.954Z,24.70
2018-09-20T13:33:54.591Z,24.60
2018-09-20T13:36:23.191Z,24.50
2018-09-20T13:38:51.826Z,24.60
2018-09-20T13:41:20.457Z,24.60
2018-09-20T13:43:49.196Z,24.70
2018-09-20T13:46:17.827Z,24.70
2018-09-20T13:48:46.999Z,24.70
2018-09-20T13:51:15.614Z,24.80
2018-09-20T13:53:44.219Z,24.80
2018-09-20T13:56:12.855Z,24.90
2018-09-20T13:58:45.665Z,24.90
2018-09-20T14:01:14.303Z,24.80
2018-09-20T14:03:43.004Z,24.70
2018-09-20T14:06:11.620Z,24.70
2018-09-20T14:08:40.239Z,24.70
2018-09-20T14:11:11.913Z,24.70
2018-09-20T14:13:40.562Z,24.70
2018-09-20T14:16:09.212Z,24.70
2018-09-20T14:18:37.803Z,24.80
2018-09-20T14:21:06.895Z,24.70
2018-09-20T14:23:35.585Z,24.70
2018-09-20T14:26:04.320Z,24.70
2018-09-20T14:28:32.946Z,24.70
2018-09-20T14:31:01.595Z,24.70
2018-09-20T14:33:30.269Z,24.80
2018-09-20T14:35:58.931Z,24.90
2018-09-20T14:38:27.779Z,24.80
2018-09-20T14:40:56.420Z,24.70
2018-09-20T14:43:25.024Z,24.70
2018-09-20T14:45:53.616Z,24.70
2018-09-20T14:48:22.248Z,24.70
2018-09-20T14:50:50.879Z,24.70
2018-09-20T14:53:19.494Z,24.60
2018-09-20T14:55:48.175Z,24.70
2018-09-20T14:58:17.006Z,24.60
2018-09-20T15:00:45.593Z,24.60
2018-09-20T15:03:14.567Z,24.60
2018-09-20T15:05:43.178Z,24.50
2018-09-20T15:08:11.854Z,24.50
2018-09-20T15:10:40.511Z,24.50
2018-09-20T15:13:09.411Z,24.40
2018-09-20T15:15:38.020Z,24.40
2018-09-20T15:18:06.661Z,24.40
2018-09-20T15:20:35.285Z,24.30
2018-09-20T15:23:03.936Z,24.30
2018-09-20T15:25:32.625Z,24.20
2018-09-20T15:28:01.311Z,24.20
2018-09-20T15:30:30.027Z,24.20
2018-09-20T15:32:58.743Z,24.20
2018-09-20T15:35:27.371Z,24.20
2018-09-20T15:37:55.943Z,24.10
2018-09-20T15:40:24.608Z,24.10
2018-09-20T15:42:53.243Z,24.00
2018-09-20T15:45:21.916Z,24.00
2018-09-20T15:47:50.793Z,23.90
2018-09-20T15:50:19.455Z,23.90
2018-09-20T15:52:48.135Z,23.80
2018-09-20T15:55:16.880Z,23.80
2018-09-20T15:57:45.553Z,23.80
2018-09-20T16:00:14.316Z,23.80
2018-09-20T16:02:42.964Z,23.80
2018-09-20T16:05:11.586Z,23.80
2018-09-20T16:07:40.231Z,23.70
2018-09-20T16:10:08.891Z,23.60
2018-09-20T16:12:37.554Z,23.60
2018-09-20T16:15:06.299Z,23.50
2018-09-20T16:17:34.935Z,23.50
2018-09-20T16:20:03.700Z,23.40
2018-09-20T16:22:32.361Z,23.30
2018-09-20T16:25:01.020Z,23.30
2018-09-20T16:27:29.663Z,23.30
2018-09-20T16:30:08.969Z,23.30
2018-09-20T16:33:05.089Z,23.10
2018-09-20T16:35:50.140Z,22.90
2018-09-20T16:38:30.907Z,22.70
2018-09-20T16:41:01.738Z,22.50
2018-09-20T16:43:30.547Z,22.30
2018-09-20T16:45:59.791Z,22.30
2018-09-20T16:48:28.415Z,22.30
2018-09-20T16:50:57.030Z,22.10
2018-09-20T16:53:26.113Z,22.00
2018-09-20T16:55:54.691Z,21.90
2018-09-20T16:58:23.295Z,21.70
2018-09-20T17:00:51.913Z,21.60
2018-09-20T17:03:20.554Z,21.60
2018-09-20T17:05:49.390Z,21.40
2018-09-20T17:08:18.004Z,21.40
2018-09-20T17:10:46.637Z,21.30
2018-09-20T17:13:15.489Z,21.20
2018-09-20T17:15:44.059Z,21.10
2018-09-20T17:18:12.681Z,20.90
2018-09-20T17:20:41.328Z,20.70
2018-09-20T17:23:09.928Z,20.60
2018-09-20T17:25:38.563Z,20.50
2018-09-20T17:28:07.202Z,20.30
2018-09-20T17:30:35.902Z,20.20
2018-09-20T17:33:04.572Z,20.10
2018-09-20T17:35:33.640Z,20.00
2018-09-20T17:38:03.443Z,19.80
2018-09-20T17:40:33.621Z,19.70
2018-09-20T17:43:04.910Z,19.60
2018-09-20T17:45:33.507Z,19.40
2018-09-20T17:48:02.112Z,19.30
2018-09-20T17:50:30.679Z,19.20
2018-09-20T17:52:59.759Z,19.20
2018-09-20T17:55:28.849Z,19.00
2018-09-20T17:57:57.911Z,18.90
2018-09-20T18:00:26.561Z,18.90
2018-09-20T18:02:55.508Z,18.80
2018-09-20T18:05:24.382Z,18.80
2018-09-20T18:07:53.697Z,18.70
2018-09-20T18:10:22.311Z,18.60
2018-09-20T18:12:50.903Z,18.60
2018-09-20T18:15:19.519Z,18.50
2018-09-20T18:17:48.209Z,18.50
2018-09-20T18:20:16.831Z,18.40
2018-09-20T18:22:45.435Z,18.40
2018-09-20T18:25:14.051Z,18.30
2018-09-20T18:27:42.703Z,18.30
2018-09-20T18:30:11.293Z,18.20
2018-09-20T18:32:40.100Z,18.10
2018-09-20T18:35:08.819Z,18.00
2018-09-20T18:37:38.599Z,17.90
2018-09-20T18:40:07.460Z,17.90
2018-09-20T18:42:36.122Z,17.80
2018-09-20T18:45:05.068Z,17.70
2018-09-20T18:47:33.963Z,17.60
2018-09-20T18:50:02.717Z,17.50
2018-09-20T18:52:31.299Z,17.50
2018-09-20T18:55:00.229Z,17.40
2018-09-20T18:57:28.844Z,17.30
2018-09-20T18:59:57.451Z,17.30
2018-09-20T19:02:26.107Z,17.30
2018-09-20T19:04:54.734Z,17.20
2018-09-20T19:07:23.741Z,17.20
2018-09-20T19:09:52.330Z,17.10
2018-09-20T19:12:20.940Z,17.10
2018-09-20T19:14:49.598Z,17.00
2018-09-20T19:17:18.280Z,17.00
2018-09-20T19:20:22.031Z,17.00
2018-09-20T19:22:50.718Z,16.90
2018-09-20T19:25:19.716Z,16.90
2018-09-20T19:27:48.347Z,16.90
2018-09-20T19:30:16.932Z,16.80
2018-09-20T19:32:45.567Z,16.80
2018-09-20T19:35:14.167Z,16.70
2018-09-20T19:37:42.799Z,16.70
2018-09-20T19:40:11.461Z,16.70
2018-09-20T19:42:40.130Z,16.60
2018-09-20T19:45:08.471Z,16.60
2018-09-20T19:47:37.171Z,16.60
2018-09-20T19:50:06.349Z,16.50
2018-09-20T19:52:35.047Z,16.50
2018-09-20T19:55:03.774Z,16.40
2018-09-20T19:57:32.415Z,16.40
2018-09-20T20:00:01.023Z,16.40
2018-09-20T20:02:29.635Z,16.40
2018-09-20T20:04:58.228Z,16.30
2018-09-20T20:07:26.887Z,16.30
2018-09-20T20:09:55.458Z,16.30
2018-09-20T20:12:24.043Z,16.30
2018-09-20T20:14:52.659Z,16.30
2018-09-20T20:17:21.463Z,16.20
2018-09-20T20:19:50.155Z,16.20
2018-09-20T20:22:18.702Z,16.20
2018-09-20T20:24:47.370Z,16.20
2018-09-20T20:27:15.949Z,16.10
2018-09-20T20:29:44.799Z,16.20
2018-09-20T20:32:13.394Z,16.10
2018-09-20T20:34:41.987Z,16.10
2018-09-20T20:37:10.582Z,16.10
2018-09-20T20:39:39.198Z,16.00
2018-09-20T20:42:07.739Z,16.10
2018-09-20T20:44:36.376Z,16.10
2018-09-20T20:47:04.978Z,16.10
2018-09-20T20:49:33.603Z,16.00
2018-09-20T20:52:02.190Z,16.10
2018-09-20T20:54:31.377Z,16.10
2018-09-20T20:57:00.630Z,16.10
2018-09-20T20:59:29.656Z,16.10
2018-09-20T21:01:58.978Z,16.10
2018-09-20T21:04:27.736Z,16.10
2018-09-20T21:06:56.391Z,16.10
2018-09-20T21:09:25.328Z,16.10
2018-09-20T21:11:53.923Z,16.10
2018-09-20T21:14:22.496Z,16.10
2018-09-20T21:16:51.163Z,16.10
2018-09-20T21:19:19.760Z,16.00
2018-09-20T21:21:48.379Z,16.00
2018-09-20T21:24:16.915Z,16.00
2018-09-20T21:26:45.515Z,16.00
2018-09-20T21:29:14.604Z,16.00
2018-09-20T21:31:43.175Z,16.00
2018-09-20T21:34:11.756Z,15.90
2018-09-20T21:36:40.430Z,15.90
2018-09-20T21:39:11.387Z,15.90
2018-09-20T21:41:40.687Z,15.90
2018-09-20T21:44:09.565Z,15.90
2018-09-20T21:46:38.251Z,16.00
2018-09-20T21:49:06.899Z,16.00
2018-09-20T21:51:35.914Z,16.20
2018-09-20T21:54:04.568Z,16.30
2018-09-20T21:56:33.182Z,16.40
2018-09-20T21:59:02.027Z,16.50
2018-09-20T22:01:36.039Z,16.60
2018-09-20T22:04:05.646Z,16.90
2018-09-20T22:06:35.495Z,17.00
2018-09-20T22:09:06.067Z,17.00
2018-09-20T22:11:34.664Z,17.10
2018-09-20T22:14:03.318Z,17.20
2018-09-20T22:16:31.898Z,17.30
2018-09-20T22:19:00.519Z,17.50
2018-09-20T22:21:29.121Z,17.70
2018-09-20T22:23:57.678Z,17.90
2018-09-20T22:26:26.327Z,18.20
2018-09-20T22:28:54.946Z,18.30
2018-09-20T22:31:23.775Z,18.30
2018-09-20T22:33:52.710Z,18.40
2018-09-20T22:36:21.338Z,18.40
2018-09-20T22:38:49.991Z,18.40
2018-09-20T22:41:18.949Z,18.30
2018-09-20T22:43:47.539Z,18.30
2018-09-20T22:46:16.131Z,18.20
2018-09-20T22:48:44.726Z,18.10
2018-09-20T22:51:13.289Z,18.10
2018-09-20T22:53:41.943Z,18.00
2018-09-20T22:56:10.567Z,17.90
2018-09-20T22:58:39.195Z,17.90
2018-09-20T23:01:07.938Z,17.80
2018-09-20T23:03:36.499Z,17.70
2018-09-20T23:06:05.835Z,17.80
2018-09-20T23:08:34.446Z,17.80
2018-09-20T23:11:03.002Z,17.70
2018-09-20T23:13:31.618Z,17.70
2018-09-20T23:16:00.195Z,17.70
2018-09-20T23:18:28.796Z,17.60
2018-09-20T23:20:57.366Z,17.60
2018-09-20T23:23:25.931Z,17.50
2018-09-20T23:25:54.555Z,17.50
2018-09-20T23:28:23.219Z,17.50
2018-09-20T23:30:51.933Z,17.50
2018-09-20T23:33:20.539Z,17.50
2018-09-20T23:35:49.140Z,17.50
2018-09-20T23:38:17.736Z,17.40
2018-09-20T23:40:46.376Z,17.40
2018-09-20T23:43:21.328Z,17.50
2018-09-20T23:45:50.734Z,17.50
2018-09-20T23:48:19.316Z,17.50
2018-09-20T23:50:47.927Z,17.50
2018-09-20T23:53:16.599Z,17.50
2018-09-20T23:55:45.154Z,17.50
2018-09-20T23:58:13.754Z,17.60
